Time;durP1;ratioP1;P1;durP2;ratioP2;P2;SDS_P1;SDS_P2;PMS_P1;PMS_P2;Temp;Humidity;BMP_temperature;BMP_pressure;BME280_temperature;BME280_humidity;BME280_pressure;Samples;Min_cycle;Max_cycle;Signal;HPM_P1;HPM_P2
2022/08/09 00:00:20;;;;;;;;;;;19.00;93.40;;;;;;4984613;28;19925;-92
2022/08/09 00:02:50;;;;;;;;;;;19.00;93.20;;;;;;5001845;28;19930;-90
2022/08/09 00:05:20;;;;;;;;;;;18.90;93.30;;;;;;4984287;28;19929;-91
2022/08/09 00:08:10;;;;;;;;;;;18.80;93.20;;;;;;5000232;28;19932;-91
2022/08/09 00:10:59;;;;;;;;;;;16.80;93.20;;;;;;4980471;28;19926;-91
2022/08/09 00:13:49;;;;;;;;;;;18.90;93.80;;;;;;4996617;28;19925;-92
2022/08/09 00:16:17;;;;;;;;;;;16.30;93.00;;;;;;4981756;28;19949;-90
2022/08/09 00:18:53;;;;;;;;;;;18.50;94.00;;;;;;4960445;29;19926;-91
2022/08/09 00:21:20;;;;;;;;;;;18.40;94.10;;;;;;4929375;29;19949;-91
2022/08/09 00:23:49;;;;;;;;;;;18.40;94.10;;;;;;4944026;29;19933;-91
2022/08/09 00:26:28;;;;;;;;;;;18.30;94.80;;;;;;4936579;28;19930;-91
2022/08/09 00:29:01;;;;;;;;;;;18.30;94.30;;;;;;4963452;28;19956;-90
2022/08/09 00:31:29;;;;;;;;;;;18.20;94.60;;;;;;4961928;28;19933;-91
2022/08/09 00:34:18;;;;;;;;;;;18.30;94.70;;;;;;4962475;28;19930;-91
2022/08/09 00:36:47;;;;;;;;;;;18.40;94.30;;;;;;4978674;28;19953;-90
2022/08/09 00:39:15;;;;;;;;;;;18.30;94.50;;;;;;4963574;28;19951;-91
2022/08/09 00:42:08;;;;;;;;;;;18.20;94.50;;;;;;4959750;28;19926;-90
2022/08/09 00:45:10;;;;;;;;;;;18.20;94.50;;;;;;4978698;28;20401;-92
2022/08/09 00:47:43;;;;;;;;;;;18.20;94.90;;;;;;4945331;28;19933;-90
2022/08/09 00:50:11;;;;;;;;;;;18.10;94.60;;;;;;4960707;28;19930;-91
2022/08/09 00:52:41;;;;;;;;;;;18.10;95.00;;;;;;4961030;28;19926;-91
2022/08/09 00:55:09;;;;;;;;;;;18.00;94.90;;;;;;4976117;28;19926;-91
2022/08/09 00:57:57;;;;;;;;;;;17.90;95.10;;;;;;4927578;29;19930;-90
2022/08/09 01:00:26;;;;;;;;;;;17.80;95.60;;;;;;4941991;28;19931;-90
2022/08/09 01:48:05;;;;;;;;;;;17.40;96.30;;;;;;4983508;28;20152;-90
2022/08/09 01:50:37;;;;;;;;;;;17.30;96.20;;;;;;4980760;28;19925;-91
2022/08/09 01:53:09;;;;;;;;;;;17.10;96.30;;;;;;4982001;28;19980;-90
2022/08/09 01:55:46;;;;;;;;;;;17.20;96.40;;;;;;4960069;29;19931;-91
2022/08/09 01:58:14;;;;;;;;;;;17.20;96.30;;;;;;4959329;28;19941;-90
2022/08/09 02:00:42;;;;;;;;;;;17.20;96.40;;;;;;4956556;29;19927;-92
2022/08/09 02:03:17;;;;;;;;;;;17.30;96.70;;;;;;4942261;29;20382;-91
2022/08/09 02:05:48;;;;;;;;;;;17.20;96.70;;;;;;4957378;29;19963;-92
2022/08/09 02:08:35;;;;;;;;;;;17.20;96.80;;;;;;4980538;28;19941;-90
2022/08/09 02:11:26;;;;;;;;;;;17.20;96.60;;;;;;4967127;28;20002;-90
2022/08/09 02:14:11;;;;;;;;;;;17.10;96.70;;;;;;4964018;28;19937;-91
2022/08/09 02:16:54;;;;;;;;;;;17.10;96.80;;;;;;4979876;28;19933;-90
2022/08/09 02:19:42;;;;;;;;;;;17.00;96.80;;;;;;4964560;28;19926;-90
2022/08/09 02:22:24;;;;;;;;;;;17.00;97.10;;;;;;4960426;28;19930;-91
2022/08/09 02:25:28;;;;;;;;;;;17.00;96.90;;;;;;4963417;28;20313;-91
2022/08/09 02:27:58;;;;;;;;;;;17.00;97.10;;;;;;4943242;29;20310;-91
2022/08/09 02:30:36;;;;;;;;;;;16.70;97.10;;;;;;4944257;29;19926;-90
2022/08/09 02:33:13;;;;;;;;;;;16.90;97.10;;;;;;4929134;29;19942;-91
2022/08/09 02:35:44;;;;;;;;;;;16.90;97.10;;;;;;4948421;28;19930;-90
2022/08/09 02:38:34;;;;;;;;;;;16.90;97.20;;;;;;4965654;28;19930;-91
2022/08/09 02:41:10;;;;;;;;;;;16.90;97.40;;;;;;4949650;28;19926;-90
2022/08/09 02:43:39;;;;;;;;;;;16.90;97.30;;;;;;4945773;29;19933;-91
2022/08/09 02:46:23;;;;;;;;;;;16.80;97.30;;;;;;5000870;28;19930;-90
2022/08/09 02:48:52;;;;;;;;;;;16.80;97.30;;;;;;4968397;28;19933;-90
2022/08/09 02:51:21;;;;;;;;;;;16.90;97.70;;;;;;4984689;28;19950;-90
2022/08/09 02:53:51;;;;;;;;;;;16.90;97.70;;;;;;4968927;28;19930;-90
2022/08/09 02:56:30;;;;;;;;;;;16.80;97.70;;;;;;4959015;28;19926;-90
2022/08/09 02:59:01;;;;;;;;;;;16.90;97.90;;;;;;4967925;28;19938;-91
2022/08/09 03:01:31;;;;;;;;;;;16.70;97.70;;;;;;4974228;28;20184;-91
2022/08/09 03:04:20;;;;;;;;;;;16.70;97.90;;;;;;4969625;28;19930;-91
2022/08/09 03:06:56;;;;;;;;;;;16.70;98.00;;;;;;4968395;28;19946;-90
2022/08/09 03:09:27;;;;;;;;;;;16.60;98.00;;;;;;4985080;28;19930;-91
2022/08/09 03:12:01;;;;;;;;;;;16.60;97.90;;;;;;4996465;28;19915;-90
2022/08/09 03:14:36;;;;;;;;;;;16.60;97.90;;;;;;4977979;28;20585;-91
2022/08/09 03:22:14;;;;;;;;;;;17.10;98.00;;;;;;5113826;28;19963;-84
2022/08/09 03:25:44;;;;;;;;;;;16.90;99.00;;;;;;5086087;28;19963;-84
2022/08/09 03:32:05;;;;;;;;;;;16.50;98.20;;;;;;5104961;28;19919;-84
2022/08/09 03:35:11;;;;;;;;;;;16.60;97.90;;;;;;5080783;27;19928;-84
2022/08/09 03:38:48;;;;;;;;;;;16.50;98.10;;;;;;5155706;27;19926;-84
2022/08/09 03:41:35;;;;;;;;;;;16.90;98.80;;;;;;5141078;27;19927;-84
2022/08/09 03:44:48;;;;;;;;;;;;;;;;;;;;;
2022/08/09 03:48:03;;;;;;;;;;;19.40;99.50;;;;;;5186736;27;19923;-85
2022/08/09 03:57:41;;;;;;;;;;;16.20;99.80;;;;;;5186415;27;19933;-85
2022/08/09 04:00:33;;;;;;;;;;;16.70;98.80;;;;;;5152969;27;19923;-85
2022/08/09 04:03:34;;;;;;;;;;;;;;;;;;;;;
2022/08/09 04:07:28;;;;;;;;;;;;;;;;;;;;;
2022/08/09 04:10:39;;;;;;;;;;;16.00;98.70;;;;;;5168793;27;19923;-85
2022/08/09 04:13:35;;;;;;;;;;;16.40;98.70;;;;;;5152995;27;19923;-84
2022/08/09 04:16:55;;;;;;;;;;;15.40;98.70;;;;;;5145295;27;19928;-85
2022/08/09 04:20:16;;;;;;;;;;;15.90;99.90;;;;;;5132548;27;19938;-85
2022/08/09 04:22:58;;;;;;;;;;;16.10;98.90;;;;;;5146650;27;19929;-85
2022/08/09 04:25:29;;;;;;;;;;;16.50;98.90;;;;;;5163721;27;19934;-84
2022/08/09 04:28:08;;;;;;;;;;;16.20;99.40;;;;;;5152361;27;19930;-85
2022/08/09 04:31:11;;;;;;;;;;;15.60;99.10;;;;;;5132246;27;19923;-85
2022/08/09 04:34:14;;;;;;;;;;;16.60;99.90;;;;;;5133410;27;19923;-85
2022/08/09 04:37:30;;;;;;;;;;;17.50;99.40;;;;;;5151388;27;19942;-85
2022/08/09 04:41:04;;;;;;;;;;;;;;;;;;;;;
2022/08/09 04:44:11;;;;;;;;;;;16.40;99.30;;;;;;5111014;27;19918;-84
2022/08/09 04:47:03;;;;;;;;;;;;;;;;;;;;;
2022/08/09 04:50:04;;;;;;;;;;;16.10;99.50;;;;;;5150321;27;19923;-84
2022/08/09 04:53:00;;;;;;;;;;;16.00;99.30;;;;;;5135048;27;19930;-85
2022/08/09 04:56:37;;;;;;;;;;;;;;;;;;;;;
2022/08/09 05:04:16;;;;;;;;;;;;;;;;;;;;;
2022/08/09 05:07:27;;;;;;;;;;;17.10;99.90;;;;;;5090709;28;19928;-86
2022/08/09 05:10:28;;;;;;;;;;;16.10;99.90;;;;;;5073707;28;19924;-85
2022/08/09 05:16:21;;;;;;;;;;;16.00;99.60;;;;;;5068263;28;19962;-85
2022/08/09 05:19:21;;;;;;;;;;;17.20;99.90;;;;;;5060612;28;19939;-84
2022/08/09 05:22:37;;;;;;;;;;;16.40;99.70;;;;;;5139744;27;19942;-85
2022/08/09 05:26:08;;;;;;;;;;;16.10;99.80;;;;;;5105675;27;20489;-84
2022/08/09 05:29:09;;;;;;;;;;;16.60;99.80;;;;;;5107164;27;19923;-85
2022/08/09 05:32:18;;;;;;;;;;;;;;;;;;;;;
2022/08/09 05:35:49;;;;;;;;;;;;;;;;;;;;;
2022/08/09 05:38:38;;;;;;;;;;;17.40;99.90;;;;;;5144345;27;19931;-85
2022/08/09 05:41:18;;;;;;;;;;;16.60;99.60;;;;;;5096470;28;19923;-84
2022/08/09 05:44:19;;;;;;;;;;;16.70;99.70;;;;;;5113998;27;19938;-84
2022/08/09 05:48:00;;;;;;;;;;;16.90;99.90;;;;;;5082847;28;19935;-84
2022/08/09 05:51:09;;;;;;;;;;;18.60;99.90;;;;;;4982888;28;19936;-84
2022/08/09 05:54:27;;;;;;;;;;;17.00;99.90;;;;;;5000601;28;20150;-83
2022/08/09 05:57:11;;;;;;;;;;;17.00;99.90;;;;;;4994649;28;20445;-85
2022/08/09 06:00:12;;;;;;;;;;;15.00;99.90;;;;;;4987387;28;19928;-83
2022/08/09 06:03:29;;;;;;;;;;;17.20;99.90;;;;;;4999859;28;19936;-83
2022/08/09 06:06:34;;;;;;;;;;;17.30;99.90;;;;;;5089316;28;19924;-84
2022/08/09 06:09:12;;;;;;;;;;;15.90;99.90;;;;;;5065353;28;19925;-85
2022/08/09 06:12:33;;;;;;;;;;;19.50;99.90;;;;;;5045466;28;19926;-85
2022/08/09 06:16:03;;;;;;;;;;;17.60;99.90;;;;;;5070727;28;19928;-84
2022/08/09 06:18:34;;;;;;;;;;;16.40;99.90;;;;;;5090545;28;19928;-84
2022/08/09 06:21:12;;;;;;;;;;;17.90;99.90;;;;;;5089094;28;19950;-85
2022/08/09 06:24:01;;;;;;;;;;;18.00;99.90;;;;;;5094489;27;19923;-85
2022/08/09 06:26:44;;;;;;;;;;;18.00;99.90;;;;;;5127159;28;19930;-85
2022/08/09 06:29:27;;;;;;;;;;;20.00;99.90;;;;;;5081422;28;19928;-83
2022/08/09 06:31:55;;;;;;;;;;;18.30;99.90;;;;;;5127817;28;19930;-84
2022/08/09 06:34:49;;;;;;;;;;;17.10;99.90;;;;;;5129577;27;19924;-84
2022/08/09 06:37:53;;;;;;;;;;;;;;;;;;;;;
2022/08/09 06:40:38;;;;;;;;;;;18.40;99.90;;;;;;5151805;27;19927;-85
2022/08/09 06:43:21;;;;;;;;;;;19.30;99.90;;;;;;5127590;27;19933;-83
2022/08/09 06:46:02;;;;;;;;;;;20.50;99.90;;;;;;5130567;27;19934;-83
2022/08/09 06:48:39;;;;;;;;;;;17.30;99.90;;;;;;5128981;27;19939;-84
2022/08/09 06:51:15;;;;;;;;;;;19.50;99.90;;;;;;5110671;27;19923;-83
2022/08/09 06:53:53;;;;;;;;;;;18.50;99.90;;;;;;5112191;27;19924;-84
2022/08/09 06:56:23;;;;;;;;;;;18.50;99.90;;;;;;5124444;28;19943;-84
2022/08/09 06:59:20;;;;;;;;;;;18.90;99.90;;;;;;5123907;28;19928;-84
2022/08/09 07:02:20;;;;;;;;;;;19.10;99.90;;;;;;5128447;27;20393;-83
2022/08/09 07:05:01;;;;;;;;;;;18.70;99.90;;;;;;5092151;28;19930;-83
2022/08/09 07:07:48;;;;;;;;;;;18.80;99.90;;;;;;5123918;28;19930;-83
2022/08/09 07:10:33;;;;;;;;;;;18.90;99.90;;;;;;5124272;28;19931;-84
2022/08/09 07:13:01;;;;;;;;;;;19.10;99.90;;;;;;5115383;28;19947;-84
2022/08/09 07:15:49;;;;;;;;;;;19.20;99.90;;;;;;5127171;28;19930;-84
2022/08/09 07:18:38;;;;;;;;;;;19.30;99.90;;;;;;5146167;27;20582;-83
2022/08/09 07:21:07;;;;;;;;;;;18.50;99.90;;;;;;5145213;28;19931;-83
2022/08/09 07:23:40;;;;;;;;;;;19.80;99.90;;;;;;5112461;28;19923;-84
2022/08/09 07:26:28;;;;;;;;;;;20.00;99.90;;;;;;5146952;27;20368;-87
2022/08/09 07:28:56;;;;;;;;;;;20.50;99.90;;;;;;5148881;28;19923;-84
2022/08/09 07:31:36;;;;;;;;;;;19.40;99.90;;;;;;5147655;28;19928;-83
2022/08/09 07:34:23;;;;;;;;;;;18.30;99.90;;;;;;5114705;28;19930;-83
2022/08/09 07:37:08;;;;;;;;;;;19.50;99.90;;;;;;5129253;28;20108;-82
2022/08/09 07:39:59;;;;;;;;;;;19.60;99.90;;;;;;5132689;28;19923;-84
2022/08/09 07:42:39;;;;;;;;;;;19.40;99.90;;;;;;5147115;27;19931;-85
2022/08/09 07:45:11;;;;;;;;;;;20.80;99.90;;;;;;5131042;28;19924;-82
2022/08/09 07:48:03;;;;;;;;;;;18.90;99.90;;;;;;5131384;28;19930;-83
2022/08/09 07:50:55;;;;;;;;;;;19.30;99.90;;;;;;5145558;28;19923;-84
2022/08/09 07:53:47;;;;;;;;;;;19.30;99.90;;;;;;5146375;28;19929;-83
2022/08/09 07:56:41;;;;;;;;;;;19.30;99.90;;;;;;5146082;28;19930;-83
2022/08/09 07:59:19;;;;;;;;;;;19.30;99.90;;;;;;5144672;28;20260;-84
2022/08/09 08:02:16;;;;;;;;;;;20.20;99.90;;;;;;5146062;27;19943;-87
2022/08/09 08:05:09;;;;;;;;;;;18.50;99.90;;;;;;5070213;28;20445;-83
2022/08/09 08:07:53;;;;;;;;;;;19.20;99.90;;;;;;5068683;28;19931;-83
2022/08/09 08:10:42;;;;;;;;;;;19.40;99.90;;;;;;5037904;28;19936;-83
2022/08/09 08:13:40;;;;;;;;;;;19.50;99.90;;;;;;5071921;28;19928;-85
2022/08/09 08:16:23;;;;;;;;;;;19.30;99.90;;;;;;5064459;28;19932;-83
2022/08/09 08:18:59;;;;;;;;;;;20.80;99.90;;;;;;5033050;28;19924;-82
2022/08/09 08:21:30;;;;;;;;;;;19.60;99.90;;;;;;5048029;28;20489;-82
2022/08/09 08:23:58;;;;;;;;;;;19.70;99.90;;;;;;5014944;28;19925;-82
2022/08/09 08:26:40;;;;;;;;;;;19.70;99.90;;;;;;5077217;28;20308;-83
2022/08/09 08:29:25;;;;;;;;;;;19.80;99.90;;;;;;5080349;28;20042;-83
2022/08/09 08:32:11;;;;;;;;;;;19.90;99.90;;;;;;5112840;28;20480;-83
2022/08/09 08:34:53;;;;;;;;;;;20.10;99.90;;;;;;5111867;28;19928;-82
2022/08/09 08:38:07;;;;;;;;;;;20.40;99.70;;;;;;5110389;28;19926;-83
2022/08/09 08:40:38;;;;;;;;;;;20.10;99.30;;;;;;5099282;28;19924;-83
2022/08/09 08:43:12;;;;;;;;;;;20.10;99.70;;;;;;5118949;27;19927;-85
2022/08/09 08:45:47;;;;;;;;;;;20.10;99.10;;;;;;5126486;28;19927;-84
2022/08/09 08:48:39;;;;;;;;;;;20.10;99.50;;;;;;5126614;28;19928;-83
2022/08/09 08:51:47;;;;;;;;;;;20.20;99.30;;;;;;5127297;28;19924;-87
2022/08/09 08:54:34;;;;;;;;;;;20.20;99.20;;;;;;5123774;28;19924;-84
2022/08/09 08:57:16;;;;;;;;;;;19.00;99.10;;;;;;5145324;27;19924;-82
2022/08/09 09:00:30;;;;;;;;;;;20.70;98.60;;;;;;5147398;27;19927;-83
2022/08/09 09:03:31;;;;;;;;;;;19.90;99.20;;;;;;5150953;27;19930;-85
2022/08/09 09:06:09;;;;;;;;;;;22.30;98.60;;;;;;5134699;27;19927;-85
2022/08/09 09:08:49;;;;;;;;;;;22.00;98.90;;;;;;5133596;27;20227;-83
2022/08/09 09:11:24;;;;;;;;;;;21.00;96.70;;;;;;5132938;27;20591;-85
2022/08/09 09:18:00;;;;;;;;;;;21.10;97.80;;;;;;5113588;28;19924;-85
2022/08/09 09:20:33;;;;;;;;;;;22.50;96.80;;;;;;5112811;28;19927;-86
2022/08/09 09:23:23;;;;;;;;;;;21.70;96.60;;;;;;5096414;28;19919;-86
2022/08/09 09:26:24;;;;;;;;;;;21.50;96.00;;;;;;5138483;27;19934;-87
2022/08/09 09:29:01;;;;;;;;;;;21.80;95.80;;;;;;5131669;27;19947;-84
2022/08/09 09:32:01;;;;;;;;;;;21.70;96.50;;;;;;5147444;27;19930;-85
2022/08/09 09:35:07;;;;;;;;;;;21.80;95.00;;;;;;5131366;27;19931;-86
2022/08/09 09:37:37;;;;;;;;;;;21.60;95.40;;;;;;5149555;27;19927;-85
2022/08/09 09:40:18;;;;;;;;;;;20.90;95.30;;;;;;5130322;28;19923;-87
2022/08/09 09:43:47;;;;;;;;;;;22.20;95.00;;;;;;5114421;28;19924;-86
2022/08/09 09:47:30;;;;;;;;;;;23.10;93.90;;;;;;5135889;28;20358;-85
2022/08/09 09:50:43;;;;;;;;;;;22.40;94.00;;;;;;5101649;28;19924;-86
2022/08/09 09:53:31;;;;;;;;;;;22.70;93.60;;;;;;5114423;28;19924;-86
2022/08/09 09:56:53;;;;;;;;;;;23.00;93.60;;;;;;5106532;28;19924;-88
2022/08/09 10:01:05;;;;;;;;;;;22.40;92.60;;;;;;5111042;28;19931;-85
2022/08/09 10:04:00;;;;;;;;;;;22.20;91.80;;;;;;5110780;28;20387;-87
2022/08/09 10:07:52;;;;;;;;;;;22.40;91.60;;;;;;5052468;28;19924;-86
2022/08/09 10:15:23;;;;;;;;;;;21.30;90.70;;;;;;5046068;28;19933;-86
2022/08/09 10:18:12;;;;;;;;;;;24.40;91.10;;;;;;5038200;28;19995;-86
2022/08/09 10:21:14;;;;;;;;;;;21.40;89.60;;;;;;5036788;28;19920;-86
2022/08/09 10:24:18;;;;;;;;;;;25.80;92.00;;;;;;5067599;28;19929;-86
2022/08/09 10:27:19;;;;;;;;;;;22.30;88.40;;;;;;5065402;28;19933;-86
2022/08/09 10:30:46;;;;;;;;;;;24.20;88.60;;;;;;5071770;28;19935;-86
2022/08/09 10:33:56;;;;;;;;;;;;;;;;;;;;;
2022/08/09 10:36:56;;;;;;;;;;;24.80;87.20;;;;;;5050113;28;19925;-86
2022/08/09 10:39:27;;;;;;;;;;;24.50;87.30;;;;;;5036970;28;19929;-87
2022/08/09 10:45:51;;;;;;;;;;;24.50;85.00;;;;;;5034394;28;19971;-85
2022/08/09 10:48:39;;;;;;;;;;;25.10;84.30;;;;;;5036727;28;19931;-85
2022/08/09 10:51:49;;;;;;;;;;;25.20;82.20;;;;;;5033199;28;19928;-83
2022/08/09 10:54:25;;;;;;;;;;;25.40;81.90;;;;;;5030689;28;20474;-84
2022/08/09 10:57:08;;;;;;;;;;;25.60;81.70;;;;;;5039716;28;19961;-85
2022/08/09 11:00:27;;;;;;;;;;;25.70;81.30;;;;;;4994700;28;19929;-85
2022/08/09 11:02:59;;;;;;;;;;;26.50;82.30;;;;;;5107986;28;19930;-86
2022/08/09 11:06:21;;;;;;;;;;;26.00;80.00;;;;;;5125035;28;19930;-84
2022/08/09 11:09:15;;;;;;;;;;;26.20;79.50;;;;;;5134406;27;20003;-84
2022/08/09 11:12:06;;;;;;;;;;;;;;;;;;;;;
2022/08/09 11:21:51;;;;;;;;;;;26.50;76.80;;;;;;5085765;28;19924;-86
2022/08/09 11:29:03;;;;;;;;;;;;;;;;;;;;;
2022/08/09 11:32:41;;;;;;;;;;;27.10;75.40;;;;;;5071828;28;19929;-85
2022/08/09 11:39:22;;;;;;;;;;;29.00;77.70;;;;;;5080520;28;19924;-87
2022/08/09 11:49:57;;;;;;;;;;;;;;;;;;;;;
2022/08/09 11:53:19;;;;;;;;;;;27.00;76.30;;;;;;5141427;27;19966;-84
2022/08/09 11:56:21;;;;;;;;;;;27.20;76.90;;;;;;5140102;27;19930;-86
2022/08/09 11:59:55;;;;;;;;;;;27.30;75.90;;;;;;5131197;27;19930;-87
2022/08/09 12:02:49;;;;;;;;;;;;;;;;;;;;;
2022/08/09 12:06:54;;;;;;;;;;;27.60;74.90;;;;;;5082370;28;19971;-86
2022/08/09 12:10:11;;;;;;;;;;;28.10;74.40;;;;;;5094810;28;19931;-88
2022/08/09 12:13:18;;;;;;;;;;;;;;;;;;;;;
2022/08/09 12:17:04;;;;;;;;;;;28.60;74.00;;;;;;5089948;28;19934;-84
2022/08/09 12:20:49;;;;;;;;;;;28.10;74.20;;;;;;5013490;28;19925;-85
2022/08/09 12:24:34;;;;;;;;;;;29.00;76.50;;;;;;5037608;28;19924;-86
2022/08/09 12:27:32;;;;;;;;;;;28.40;75.70;;;;;;5054905;28;19928;-86
2022/08/09 12:30:29;;;;;;;;;;;28.40;74.30;;;;;;5056182;28;19931;-87
2022/08/09 12:33:24;;;;;;;;;;;28.60;72.50;;;;;;5087355;28;19929;-86
2022/08/09 12:37:02;;;;;;;;;;;26.50;71.50;;;;;;5049345;28;19956;-85
2022/08/09 12:40:19;;;;;;;;;;;27.20;71.50;;;;;;5047633;28;19928;-86
2022/08/09 12:43:07;;;;;;;;;;;29.50;72.10;;;;;;5066478;28;19923;-85
2022/08/09 12:46:11;;;;;;;;;;;29.50;71.70;;;;;;5024806;28;19932;-88
2022/08/09 12:49:03;;;;;;;;;;;29.60;72.30;;;;;;5106857;28;20547;-85
2022/08/09 12:52:10;;;;;;;;;;;29.00;71.60;;;;;;5128418;28;19931;-87
2022/08/09 12:55:18;;;;;;;;;;;28.00;70.30;;;;;;5128162;28;19930;-86
2022/08/09 12:59:11;;;;;;;;;;;28.90;73.40;;;;;;5104436;28;19931;-86
2022/08/09 13:01:42;;;;;;;;;;;28.90;70.40;;;;;;5133394;27;19923;-86
2022/08/09 13:04:18;;;;;;;;;;;28.80;73.10;;;;;;5132382;27;19930;-85
2022/08/09 13:11:15;;;;;;;;;;;28.10;70.10;;;;;;5090486;27;19912;-85
2022/08/09 13:14:13;;;;;;;;;;;28.80;72.90;;;;;;5124418;27;19923;-87
2022/08/09 13:20:46;;;;;;;;;;;29.10;69.80;;;;;;5149695;27;20284;-90
2022/08/09 13:24:15;;;;;;;;;;;27.10;67.60;;;;;;5148137;27;19938;-85
2022/08/09 13:31:45;;;;;;;;;;;;;;;;;;;;;
2022/08/09 13:34:48;;;;;;;;;;;29.90;68.50;;;;;;5135467;27;20366;-87
2022/08/09 13:37:32;;;;;;;;;;;29.60;69.50;;;;;;5116815;27;19923;-86
2022/08/09 13:40:54;;;;;;;;;;;29.60;70.40;;;;;;5150057;27;19923;-87
2022/08/09 13:43:54;;;;;;;;;;;29.80;66.10;;;;;;5133203;27;19927;-87
2022/08/09 13:54:17;;;;;;;;;;;30.70;66.60;;;;;;5101126;27;19928;-88
2022/08/09 14:00:17;;;;;;;;;;;30.90;65.50;;;;;;5126701;27;20008;-89
2022/08/09 14:03:25;;;;;;;;;;;31.10;65.10;;;;;;5136018;27;19934;-87
2022/08/09 14:06:44;;;;;;;;;;;31.40;65.20;;;;;;5136205;27;20296;-88
2022/08/09 14:09:30;;;;;;;;;;;30.20;65.40;;;;;;5114928;27;19938;-86
2022/08/09 14:12:08;;;;;;;;;;;31.70;63.80;;;;;;5132097;27;19928;-87
2022/08/09 14:15:24;;;;;;;;;;;32.00;65.70;;;;;;5135423;27;19927;-85
2022/08/09 14:18:43;;;;;;;;;;;;;;;;;;;;;
2022/08/09 14:21:44;;;;;;;;;;;33.50;64.00;;;;;;5146253;27;19938;-86
2022/08/09 14:25:02;;;;;;;;;;;;;;;;;;;;;
2022/08/09 14:28:03;;;;;;;;;;;33.50;63.40;;;;;;5108668;28;19928;-87
2022/08/09 14:30:46;;;;;;;;;;;33.00;62.10;;;;;;5126560;28;19923;-87
2022/08/09 14:33:32;;;;;;;;;;;32.80;61.80;;;;;;5131365;27;19930;-86
2022/08/09 14:36:26;;;;;;;;;;;32.70;60.90;;;;;;5094518;27;19924;-86
2022/08/09 14:39:42;;;;;;;;;;;32.90;63.40;;;;;;5148908;27;20004;-88
2022/08/09 14:43:09;;;;;;;;;;;33.20;62.00;;;;;;5076455;28;19935;-86
2022/08/09 14:46:03;;;;;;;;;;;33.70;61.20;;;;;;5081151;28;19925;-87
2022/08/09 14:49:36;;;;;;;;;;;33.60;61.40;;;;;;4995796;28;19935;-86
2022/08/09 14:53:21;;;;;;;;;;;32.50;59.30;;;;;;5100262;28;19938;-86
2022/08/09 14:56:09;;;;;;;;;;;33.30;59.00;;;;;;5121455;27;19927;-86
2022/08/09 14:59:42;;;;;;;;;;;;;;;;;;;;;
2022/08/09 15:02:38;;;;;;;;;;;33.80;59.80;;;;;;5129507;27;19933;-88
2022/08/09 15:05:42;;;;;;;;;;;;;;;;;;;;;
2022/08/09 15:09:30;;;;;;;;;;;34.10;58.60;;;;;;5056404;28;19929;-85
2022/08/09 15:12:28;;;;;;;;;;;34.20;60.50;;;;;;5069914;28;19934;-85
2022/08/09 15:15:34;;;;;;;;;;;31.90;56.50;;;;;;5078719;28;19928;-87
2022/08/09 15:22:53;;;;;;;;;;;35.20;58.50;;;;;;5070051;28;20586;-86
2022/08/09 15:26:25;;;;;;;;;;;34.80;57.90;;;;;;5033667;28;19936;-86
2022/08/09 15:29:38;;;;;;;;;;;34.90;58.00;;;;;;5032152;28;19925;-86
2022/08/09 15:32:59;;;;;;;;;;;34.40;57.20;;;;;;5048943;28;20059;-85
2022/08/09 15:36:10;;;;;;;;;;;34.60;57.70;;;;;;5033064;28;19925;-87
2022/08/09 15:39:15;;;;;;;;;;;35.10;57.30;;;;;;5027410;28;19925;-87
2022/08/09 15:42:30;;;;;;;;;;;35.00;59.50;;;;;;5044945;28;19936;-86
2022/08/09 15:46:04;;;;;;;;;;;34.10;57.40;;;;;;5118574;28;19928;-88
2022/08/09 15:49:02;;;;;;;;;;;35.40;57.40;;;;;;5114912;28;19928;-85
2022/08/09 15:52:12;;;;;;;;;;;35.00;57.70;;;;;;5113548;28;19924;-87
2022/08/09 15:55:34;;;;;;;;;;;34.90;56.80;;;;;;5125171;28;19943;-87
2022/08/09 15:58:27;;;;;;;;;;;35.10;58.10;;;;;;5109521;28;19934;-84
2022/08/09 16:04:59;;;;;;;;;;;35.30;58.30;;;;;;5126413;28;19924;-87
2022/08/09 16:07:45;;;;;;;;;;;35.80;57.30;;;;;;5109298;28;19923;-85
2022/08/09 16:10:32;;;;;;;;;;;35.50;57.60;;;;;;5124608;28;19924;-85
2022/08/09 16:13:53;;;;;;;;;;;35.00;59.40;;;;;;5126355;28;19924;-85
2022/08/09 16:17:39;;;;;;;;;;;35.90;58.10;;;;;;5125743;27;19923;-86
2022/08/09 16:20:39;;;;;;;;;;;35.90;56.60;;;;;;5148813;27;19934;-84
2022/08/09 16:27:56;;;;;;;;;;;35.20;58.20;;;;;;5158370;27;19927;-87
2022/08/09 16:30:43;;;;;;;;;;;33.70;56.20;;;;;;5141491;27;19940;-85
2022/08/09 16:33:59;;;;;;;;;;;;;;;;;;;;;
2022/08/09 16:37:19;;;;;;;;;;;34.90;59.70;;;;;;5174008;27;19923;-84
2022/08/09 16:44:23;;;;;;;;;;;34.90;57.40;;;;;;5157159;27;19933;-86
2022/08/09 16:47:40;;;;;;;;;;;34.60;58.80;;;;;;5121503;27;20288;-88
2022/08/09 16:51:18;;;;;;;;;;;;;;;;;;;;;
2022/08/09 16:54:33;;;;;;;;;;;35.10;59.00;;;;;;5125301;27;19911;-87
2022/08/09 17:01:42;;;;;;;;;;;34.70;58.50;;;;;;5142347;27;20409;-86
2022/08/09 17:04:49;;;;;;;;;;;34.50;58.70;;;;;;5135434;27;19923;-87
2022/08/09 17:08:27;;;;;;;;;;;32.90;55.70;;;;;;5147388;27;19953;-88
2022/08/09 17:11:27;;;;;;;;;;;34.70;57.00;;;;;;5113243;27;19927;-85
2022/08/09 17:14:17;;;;;;;;;;;34.80;56.80;;;;;;5131494;27;20364;-85
2022/08/09 17:17:26;;;;;;;;;;;34.80;58.40;;;;;;5147696;27;19930;-86
2022/08/09 17:20:27;;;;;;;;;;;35.00;56.90;;;;;;5089358;27;19927;-86
2022/08/09 17:23:35;;;;;;;;;;;;;;;;;;;;;
2022/08/09 17:41:26;;;;;;;;;;;32.80;58.20;;;;;;5011888;28;19936;-88
2022/08/09 17:45:01;;;;;;;;;;;32.90;60.30;;;;;;5010161;28;20365;-88
2022/08/09 17:48:06;;;;;;;;;;;33.30;59.00;;;;;;5041624;28;19967;-88
2022/08/09 17:52:30;;;;;;;;;;;;;;;;;;;;;
2022/08/09 17:56:09;;;;;;;;;;;31.90;59.10;;;;;;4923527;29;19930;-86
2022/08/09 18:03:48;;;;;;;;;;;31.30;60.30;;;;;;4928948;29;19935;-89
2022/08/09 18:07:08;;;;;;;;;;;31.70;60.70;;;;;;4934468;29;19927;-88
2022/08/09 18:10:37;;;;;;;;;;;30.50;60.80;;;;;;5025757;28;19924;-87
2022/08/09 18:14:11;;;;;;;;;;;31.30;67.90;;;;;;5071027;27;19923;-87
2022/08/09 18:17:17;;;;;;;;;;;;;;;;;;;;;
2022/08/09 18:20:29;;;;;;;;;;;28.10;65.50;;;;;;5113599;28;19930;-88
2022/08/09 18:23:54;;;;;;;;;;;25.50;65.80;;;;;;5129279;28;19930;-88
2022/08/09 18:27:35;;;;;;;;;;;29.20;72.30;;;;;;5132941;27;19929;-90
2022/08/09 18:31:10;;;;;;;;;;;26.10;70.60;;;;;;5102981;27;19931;-86
2022/08/09 18:34:37;;;;;;;;;;;25.60;71.20;;;;;;5122005;27;19938;-87
2022/08/09 18:37:43;;;;;;;;;;;25.70;74.40;;;;;;5149024;27;19923;-86
2022/08/09 18:40:48;;;;;;;;;;;;;;;;;;;;;
2022/08/09 18:43:56;;;;;;;;;;;24.90;74.00;;;;;;5068612;28;19968;-87
2022/08/09 18:50:23;;;;;;;;;;;23.70;74.10;;;;;;5047069;28;19925;-86
2022/08/09 18:53:37;;;;;;;;;;;24.50;79.70;;;;;;5049985;28;19939;-86
2022/08/09 18:57:18;;;;;;;;;;;24.10;76.70;;;;;;5053733;28;19924;-88
2022/08/09 19:00:22;;;;;;;;;;;24.60;79.70;;;;;;4970239;28;19926;-86
2022/08/09 19:03:56;;;;;;;;;;;23.80;75.60;;;;;;4952353;28;19920;-85
2022/08/09 19:06:34;;;;;;;;;;;23.70;79.10;;;;;;4952619;28;19930;-86
2022/08/09 19:09:59;;;;;;;;;;;22.40;78.00;;;;;;4983548;28;19925;-88
2022/08/09 19:13:32;;;;;;;;;;;22.40;76.60;;;;;;5021552;28;19925;-85
2022/08/09 19:16:15;;;;;;;;;;;25.00;79.00;;;;;;4995870;28;19926;-85
2022/08/09 19:19:18;;;;;;;;;;;23.60;80.60;;;;;;5010819;28;19932;-87
2022/08/09 19:21:55;;;;;;;;;;;22.60;81.20;;;;;;4996298;28;20011;-88
2022/08/09 19:24:45;;;;;;;;;;;23.00;79.10;;;;;;5040660;28;19925;-88
2022/08/09 19:31:06;;;;;;;;;;;23.00;79.30;;;;;;5145088;27;19923;-87
2022/08/09 19:34:36;;;;;;;;;;;22.90;79.50;;;;;;5128587;28;19930;-88
2022/08/09 19:41:01;;;;;;;;;;;23.20;82.60;;;;;;5134855;28;19941;-87
2022/08/09 19:43:37;;;;;;;;;;;22.50;81.30;;;;;;5118414;28;19924;-88
2022/08/09 19:46:40;;;;;;;;;;;22.60;83.50;;;;;;5116407;28;19930;-87
2022/08/09 19:50:20;;;;;;;;;;;21.60;81.80;;;;;;5125611;28;19929;-87
2022/08/09 19:57:00;;;;;;;;;;;22.40;83.40;;;;;;5051712;27;19928;-89
2022/08/09 19:59:33;;;;;;;;;;;24.10;84.40;;;;;;5122652;27;19923;-88
2022/08/09 20:02:35;;;;;;;;;;;22.80;83.00;;;;;;5127383;27;19930;-88
2022/08/09 20:10:02;;;;;;;;;;;21.10;81.80;;;;;;5134930;27;19927;-88
2022/08/09 20:13:03;;;;;;;;;;;20.60;83.90;;;;;;5130884;27;19923;-87
2022/08/09 20:15:54;;;;;;;;;;;21.80;83.70;;;;;;5138205;27;19914;-86
2022/08/09 20:19:14;;;;;;;;;;;21.60;86.40;;;;;;5104269;28;19923;-87
2022/08/09 20:22:46;;;;;;;;;;;21.30;84.50;;;;;;5133665;28;19924;-88
2022/08/09 20:25:25;;;;;;;;;;;21.40;83.80;;;;;;5117972;27;19924;-88
2022/08/09 20:28:09;;;;;;;;;;;21.60;86.30;;;;;;5108866;27;19945;-87
2022/08/09 20:31:04;;;;;;;;;;;21.60;84.90;;;;;;5123725;27;19923;-87
2022/08/09 20:33:37;;;;;;;;;;;21.40;86.40;;;;;;5103897;27;19927;-87
2022/08/09 20:36:14;;;;;;;;;;;22.00;88.20;;;;;;5104554;27;19927;-88
2022/08/09 20:38:47;;;;;;;;;;;21.40;87.80;;;;;;5137276;27;19928;-86
2022/08/09 20:42:07;;;;;;;;;;;21.40;87.20;;;;;;5142356;27;19923;-87
2022/08/09 20:44:39;;;;;;;;;;;21.60;86.90;;;;;;5113781;28;19928;-88
2022/08/09 20:47:17;;;;;;;;;;;20.90;90.00;;;;;;5082181;28;19930;-87
2022/08/09 20:50:11;;;;;;;;;;;21.20;88.30;;;;;;5083989;28;19938;-88